sensor_id;sensor_type;location;lat;lon;timestamp;temperature;humidity
18297;DHT22;18066;52.106;5.534;2023-12-20T00:00:28;7.10;99.90
18297;DHT22;18066;52.106;5.534;2023-12-20T00:02:55;7.10;99.90
18297;DHT22;18066;52.106;5.534;2023-12-20T00:05:22;7.10;99.90
18297;DHT22;18066;52.106;5.534;2023-12-20T00:07:49;7.10;99.90
18297;DHT22;18066;52.106;5.534;2023-12-20T00:10:16;7.10;99.90
18297;DHT22;18066;52.106;5.534;2023-12-20T00:12:44;7.00;99.90
18297;DHT22;18066;52.106;5.534;2023-12-20T00:15:11;7.10;99.90
18297;DHT22;18066;52.106;5.534;2023-12-20T00:17:38;7.00;99.90
18297;DHT22;18066;52.106;5.534;2023-12-20T00:20:06;7.00;99.90
18297;DHT22;18066;52.106;5.534;2023-12-20T00:22:33;7.00;99.90
18297;DHT22;18066;52.106;5.534;2023-12-20T00:24:59;6.90;99.90
18297;DHT22;18066;52.106;5.534;2023-12-20T00:27:26;6.90;99.90
18297;DHT22;18066;52.106;5.534;2023-12-20T00:29:55;6.90;99.90
18297;DHT22;18066;52.106;5.534;2023-12-20T00:32:21;6.80;99.90
18297;DHT22;18066;52.106;5.534;2023-12-20T00:34:48;6.80;99.90
18297;DHT22;18066;52.106;5.534;2023-12-20T00:37:15;6.80;99.90
18297;DHT22;18066;52.106;5.534;2023-12-20T00:39:42;6.70;99.90
18297;DHT22;18066;52.106;5.534;2023-12-20T00:42:09;6.70;99.90
18297;DHT22;18066;52.106;5.534;2023-12-20T00:44:36;6.70;99.90
18297;DHT22;18066;52.106;5.534;2023-12-20T00:47:05;6.70;99.90
18297;DHT22;18066;52.106;5.534;2023-12-20T00:49:31;6.60;99.90
18297;DHT22;18066;52.106;5.534;2023-12-20T00:51:58;6.60;99.90
18297;DHT22;18066;52.106;5.534;2023-12-20T00:54:25;6.60;99.90
18297;DHT22;18066;52.106;5.534;2023-12-20T00:56:52;6.60;99.90
18297;DHT22;18066;52.106;5.534;2023-12-20T00:59:19;6.50;99.90
18297;DHT22;18066;52.106;5.534;2023-12-20T01:01:46;6.50;99.90
18297;DHT22;18066;52.106;5.534;2023-12-20T01:04:14;6.50;99.90
18297;DHT22;18066;52.106;5.534;2023-12-20T01:06:41;6.50;99.90
18297;DHT22;18066;52.106;5.534;2023-12-20T01:09:08;6.40;99.90
18297;DHT22;18066;52.106;5.534;2023-12-20T01:11:34;6.40;99.90
18297;DHT22;18066;52.106;5.534;2023-12-20T01:14:01;6.40;99.90
18297;DHT22;18066;52.106;5.534;2023-12-20T01:16:28;6.40;99.90
18297;DHT22;18066;52.106;5.534;2023-12-20T01:18:55;6.40;99.90
18297;DHT22;18066;52.106;5.534;2023-12-20T01:21:23;6.40;99.90
18297;DHT22;18066;52.106;5.534;2023-12-20T01:23:51;6.40;99.90
18297;DHT22;18066;52.106;5.534;2023-12-20T01:26:17;6.30;99.90
18297;DHT22;18066;52.106;5.534;2023-12-20T01:28:43;6.30;99.90
18297;DHT22;18066;52.106;5.534;2023-12-20T01:31:10;6.30;99.90
18297;DHT22;18066;52.106;5.534;2023-12-20T01:33:37;6.30;99.90
18297;DHT22;18066;52.106;5.534;2023-12-20T01:36:04;6.20;99.90
18297;DHT22;18066;52.106;5.534;2023-12-20T01:38:33;6.20;99.90
18297;DHT22;18066;52.106;5.534;2023-12-20T01:40:59;6.20;99.90
18297;DHT22;18066;52.106;5.534;2023-12-20T01:43:26;6.30;99.90
18297;DHT22;18066;52.106;5.534;2023-12-20T01:45:55;6.30;99.90
18297;DHT22;18066;52.106;5.534;2023-12-20T01:48:22;6.30;99.90
18297;DHT22;18066;52.106;5.534;2023-12-20T01:50:51;6.30;99.90
18297;DHT22;18066;52.106;5.534;2023-12-20T01:53:19;6.40;99.90
18297;DHT22;18066;52.106;5.534;2023-12-20T01:55:50;6.30;99.90
18297;DHT22;18066;52.106;5.534;2023-12-20T01:58:19;6.30;99.90
18297;DHT22;18066;52.106;5.534;2023-12-20T02:00:46;6.30;99.90
18297;DHT22;18066;52.106;5.534;2023-12-20T02:03:13;6.30;99.90
18297;DHT22;18066;52.106;5.534;2023-12-20T02:05:40;6.30;99.90
18297;DHT22;18066;52.106;5.534;2023-12-20T02:08:07;6.30;99.90
18297;DHT22;18066;52.106;5.534;2023-12-20T02:10:34;6.30;99.90
18297;DHT22;18066;52.106;5.534;2023-12-20T02:13:03;6.30;99.90
18297;DHT22;18066;52.106;5.534;2023-12-20T02:15:30;6.30;99.90
18297;DHT22;18066;52.106;5.534;2023-12-20T02:17:57;6.30;99.90
18297;DHT22;18066;52.106;5.534;2023-12-20T02:20:24;6.30;99.90
18297;DHT22;18066;52.106;5.534;2023-12-20T02:22:53;6.30;99.90
18297;DHT22;18066;52.106;5.534;2023-12-20T02:25:19;6.30;99.90
18297;DHT22;18066;52.106;5.534;2023-12-20T02:27:47;6.40;99.90
18297;DHT22;18066;52.106;5.534;2023-12-20T02:30:14;6.50;99.90
18297;DHT22;18066;52.106;5.534;2023-12-20T02:32:41;6.60;99.90
18297;DHT22;18066;52.106;5.534;2023-12-20T02:35:08;6.60;99.90
18297;DHT22;18066;52.106;5.534;2023-12-20T02:37:35;6.70;99.90
18297;DHT22;18066;52.106;5.534;2023-12-20T02:40:04;6.90;99.90
18297;DHT22;18066;52.106;5.534;2023-12-20T02:42:32;6.70;99.90
18297;DHT22;18066;52.106;5.534;2023-12-20T02:44:59;6.80;99.90
18297;DHT22;18066;52.106;5.534;2023-12-20T02:47:25;6.80;99.90
18297;DHT22;18066;52.106;5.534;2023-12-20T02:49:52;6.80;99.90
18297;DHT22;18066;52.106;5.534;2023-12-20T02:52:19;6.70;99.90
18297;DHT22;18066;52.106;5.534;2023-12-20T02:54:46;6.70;99.90
18297;DHT22;18066;52.106;5.534;2023-12-20T02:57:14;6.70;99.90
18297;DHT22;18066;52.106;5.534;2023-12-20T02:59:41;6.70;99.90
18297;DHT22;18066;52.106;5.534;2023-12-20T03:02:08;6.70;99.90
18297;DHT22;18066;52.106;5.534;2023-12-20T03:04:35;6.70;99.90
18297;DHT22;18066;52.106;5.534;2023-12-20T03:07:02;6.70;99.90
18297;DHT22;18066;52.106;5.534;2023-12-20T03:09:29;6.70;99.90
18297;DHT22;18066;52.106;5.534;2023-12-20T03:11:56;6.70;99.90
18297;DHT22;18066;52.106;5.534;2023-12-20T03:14:24;6.70;99.90
18297;DHT22;18066;52.106;5.534;2023-12-20T03:16:51;6.70;99.90
18297;DHT22;18066;52.106;5.534;2023-12-20T03:19:18;6.60;99.90
18297;DHT22;18066;52.106;5.534;2023-12-20T03:21:45;6.60;99.90
18297;DHT22;18066;52.106;5.534;2023-12-20T03:24:12;6.70;99.90
18297;DHT22;18066;52.106;5.534;2023-12-20T03:26:39;6.70;99.90
18297;DHT22;18066;52.106;5.534;2023-12-20T03:29:06;6.80;99.90
18297;DHT22;18066;52.106;5.534;2023-12-20T03:31:34;6.80;99.90
18297;DHT22;18066;52.106;5.534;2023-12-20T03:34:01;6.80;99.90
18297;DHT22;18066;52.106;5.534;2023-12-20T03:36:27;6.80;99.90
18297;DHT22;18066;52.106;5.534;2023-12-20T03:38:54;6.80;99.90
18297;DHT22;18066;52.106;5.534;2023-12-20T03:41:21;6.80;99.90
18297;DHT22;18066;52.106;5.534;2023-12-20T03:43:48;6.80;99.90
18297;DHT22;18066;52.106;5.534;2023-12-20T03:46:15;6.80;99.90
18297;DHT22;18066;52.106;5.534;2023-12-20T03:48:43;6.80;99.90
18297;DHT22;18066;52.106;5.534;2023-12-20T03:51:10;6.90;99.90
18297;DHT22;18066;52.106;5.534;2023-12-20T03:53:37;6.80;99.90
18297;DHT22;18066;52.106;5.534;2023-12-20T03:56:06;6.90;99.90
18297;DHT22;18066;52.106;5.534;2023-12-20T03:58:33;6.90;99.90
18297;DHT22;18066;52.106;5.534;2023-12-20T04:01:00;6.90;99.90
18297;DHT22;18066;52.106;5.534;2023-12-20T04:03:26;6.90;99.90
18297;DHT22;18066;52.106;5.534;2023-12-20T04:05:55;6.90;99.90
18297;DHT22;18066;52.106;5.534;2023-12-20T04:08:22;7.00;99.90
18297;DHT22;18066;52.106;5.534;2023-12-20T04:10:49;7.00;99.90
18297;DHT22;18066;52.106;5.534;2023-12-20T04:13:16;7.00;99.90
18297;DHT22;18066;52.106;5.534;2023-12-20T04:15:43;7.10;99.90
18297;DHT22;18066;52.106;5.534;2023-12-20T04:18:09;7.20;99.90
18297;DHT22;18066;52.106;5.534;2023-12-20T04:20:36;7.20;99.90
18297;DHT22;18066;52.106;5.534;2023-12-20T04:23:05;7.20;99.90
18297;DHT22;18066;52.106;5.534;2023-12-20T04:25:32;7.20;99.90
18297;DHT22;18066;52.106;5.534;2023-12-20T04:27:58;7.20;99.90
18297;DHT22;18066;52.106;5.534;2023-12-20T04:30:25;7.20;99.90
18297;DHT22;18066;52.106;5.534;2023-12-20T04:32:52;7.20;99.90
18297;DHT22;18066;52.106;5.534;2023-12-20T04:35:19;7.20;99.90
18297;DHT22;18066;52.106;5.534;2023-12-20T04:37:46;7.20;99.90
18297;DHT22;18066;52.106;5.534;2023-12-20T04:40:16;7.30;99.90
18297;DHT22;18066;52.106;5.534;2023-12-20T04:42:43;7.40;99.90
18297;DHT22;18066;52.106;5.534;2023-12-20T04:45:10;7.40;99.90
18297;DHT22;18066;52.106;5.534;2023-12-20T04:47:38;7.50;99.90
18297;DHT22;18066;52.106;5.534;2023-12-20T04:50:06;7.50;99.90
18297;DHT22;18066;52.106;5.534;2023-12-20T04:52:33;7.60;99.90
18297;DHT22;18066;52.106;5.534;2023-12-20T04:55:00;7.60;99.90
18297;DHT22;18066;52.106;5.534;2023-12-20T04:57:29;7.60;99.90
18297;DHT22;18066;52.106;5.534;2023-12-20T04:59:55;7.60;99.90
18297;DHT22;18066;52.106;5.534;2023-12-20T05:02:22;7.60;99.90
18297;DHT22;18066;52.106;5.534;2023-12-20T05:04:49;7.60;99.90
18297;DHT22;18066;52.106;5.534;2023-12-20T05:07:16;7.60;99.90
18297;DHT22;18066;52.106;5.534;2023-12-20T05:09:43;7.70;99.90
18297;DHT22;18066;52.106;5.534;2023-12-20T05:12:10;7.70;99.90
18297;DHT22;18066;52.106;5.534;2023-12-20T05:14:38;7.70;99.90
18297;DHT22;18066;52.106;5.534;2023-12-20T05:17:05;7.80;99.90
18297;DHT22;18066;52.106;5.534;2023-12-20T05:19:32;7.70;99.90
18297;DHT22;18066;52.106;5.534;2023-12-20T05:22:00;7.70;99.90
18297;DHT22;18066;52.106;5.534;2023-12-20T05:24:27;7.80;99.90
18297;DHT22;18066;52.106;5.534;2023-12-20T05:26:54;7.80;99.90
18297;DHT22;18066;52.106;5.534;2023-12-20T05:29:21;7.80;99.90
18297;DHT22;18066;52.106;5.534;2023-12-20T05:31:49;7.80;99.90
18297;DHT22;18066;52.106;5.534;2023-12-20T05:34:16;7.80;99.90
18297;DHT22;18066;52.106;5.534;2023-12-20T05:36:43;7.80;99.90
18297;DHT22;18066;52.106;5.534;2023-12-20T05:39:10;7.80;99.90
18297;DHT22;18066;52.106;5.534;2023-12-20T05:41:37;7.70;99.90
18297;DHT22;18066;52.106;5.534;2023-12-20T05:44:04;7.80;99.90
18297;DHT22;18066;52.106;5.534;2023-12-20T05:46:30;7.80;99.90
18297;DHT22;18066;52.106;5.534;2023-12-20T05:48:59;7.80;99.90
18297;DHT22;18066;52.106;5.534;2023-12-20T05:51:26;7.80;99.90
18297;DHT22;18066;52.106;5.534;2023-12-20T05:53:52;7.80;99.90
18297;DHT22;18066;52.106;5.534;2023-12-20T05:56:19;7.80;99.90
18297;DHT22;18066;52.106;5.534;2023-12-20T05:58:46;7.80;99.90
18297;DHT22;18066;52.106;5.534;2023-12-20T06:01:14;7.90;99.90
18297;DHT22;18066;52.106;5.534;2023-12-20T06:03:42;7.80;99.90
18297;DHT22;18066;52.106;5.534;2023-12-20T06:06:11;7.80;99.90
18297;DHT22;18066;52.106;5.534;2023-12-20T06:08:38;7.80;99.90
18297;DHT22;18066;52.106;5.534;2023-12-20T06:11:05;7.80;99.90
18297;DHT22;18066;52.106;5.534;2023-12-20T06:13:32;7.90;99.90
18297;DHT22;18066;52.106;5.534;2023-12-20T06:15:59;7.90;99.90
18297;DHT22;18066;52.106;5.534;2023-12-20T06:18:26;7.90;99.90
18297;DHT22;18066;52.106;5.534;2023-12-20T06:20:52;7.90;99.90
18297;DHT22;18066;52.106;5.534;2023-12-20T06:23:21;7.90;99.90
18297;DHT22;18066;52.106;5.534;2023-12-20T06:25:47;7.90;99.90
18297;DHT22;18066;52.106;5.534;2023-12-20T06:28:14;7.90;99.90
18297;DHT22;18066;52.106;5.534;2023-12-20T06:30:41;7.80;99.90
18297;DHT22;18066;52.106;5.534;2023-12-20T06:33:08;7.90;99.90
18297;DHT22;18066;52.106;5.534;2023-12-20T06:35:36;7.90;99.90
18297;DHT22;18066;52.106;5.534;2023-12-20T06:38:03;7.90;99.90
18297;DHT22;18066;52.106;5.534;2023-12-20T06:40:32;7.90;99.90
18297;DHT22;18066;52.106;5.534;2023-12-20T06:42:59;7.90;99.90
18297;DHT22;18066;52.106;5.534;2023-12-20T06:45:26;7.90;99.90
18297;DHT22;18066;52.106;5.534;2023-12-20T06:47:52;7.90;99.90
18297;DHT22;18066;52.106;5.534;2023-12-20T06:50:20;7.90;99.90
18297;DHT22;18066;52.106;5.534;2023-12-20T06:52:47;7.90;99.90
18297;DHT22;18066;52.106;5.534;2023-12-20T06:55:14;7.90;99.90
18297;DHT22;18066;52.106;5.534;2023-12-20T06:57:44;7.90;99.90
18297;DHT22;18066;52.106;5.534;2023-12-20T07:00:12;7.90;99.90
18297;DHT22;18066;52.106;5.534;2023-12-20T07:02:39;7.90;99.90
18297;DHT22;18066;52.106;5.534;2023-12-20T07:05:06;7.90;99.90
18297;DHT22;18066;52.106;5.534;2023-12-20T07:07:33;7.90;99.90
18297;DHT22;18066;52.106;5.534;2023-12-20T07:10:00;7.90;99.90
18297;DHT22;18066;52.106;5.534;2023-12-20T07:12:27;7.90;99.90
18297;DHT22;18066;52.106;5.534;2023-12-20T07:14:55;7.80;99.90
18297;DHT22;18066;52.106;5.534;2023-12-20T07:17:22;7.80;99.90
18297;DHT22;18066;52.106;5.534;2023-12-20T07:19:49;7.90;99.90
18297;DHT22;18066;52.106;5.534;2023-12-20T07:22:16;7.90;99.90
18297;DHT22;18066;52.106;5.534;2023-12-20T07:24:43;7.80;99.90
18297;DHT22;18066;52.106;5.534;2023-12-20T07:27:10;7.90;99.90
18297;DHT22;18066;52.106;5.534;2023-12-20T07:29:36;7.90;99.90
18297;DHT22;18066;52.106;5.534;2023-12-20T07:32:06;7.90;99.90
18297;DHT22;18066;52.106;5.534;2023-12-20T07:34:33;7.90;99.90
18297;DHT22;18066;52.106;5.534;2023-12-20T07:37:00;8.00;99.90
18297;DHT22;18066;52.106;5.534;2023-12-20T07:39:27;7.90;99.90
18297;DHT22;18066;52.106;5.534;2023-12-20T07:41:54;7.90;99.90
18297;DHT22;18066;52.106;5.534;2023-12-20T07:44:21;8.00;99.90
18297;DHT22;18066;52.106;5.534;2023-12-20T07:46:48;8.00;99.90
18297;DHT22;18066;52.106;5.534;2023-12-20T07:49:17;8.00;99.90
18297;DHT22;18066;52.106;5.534;2023-12-20T07:51:43;8.00;99.90
18297;DHT22;18066;52.106;5.534;2023-12-20T07:54:10;8.00;99.90
18297;DHT22;18066;52.106;5.534;2023-12-20T07:56:37;8.10;99.90
18297;DHT22;18066;52.106;5.534;2023-12-20T07:59:05;8.10;99.90
18297;DHT22;18066;52.106;5.534;2023-12-20T08:01:32;8.10;99.90
18297;DHT22;18066;52.106;5.534;2023-12-20T08:03:59;8.10;99.90
18297;DHT22;18066;52.106;5.534;2023-12-20T08:06:27;8.10;99.90
18297;DHT22;18066;52.106;5.534;2023-12-20T08:08:54;8.10;99.90
18297;DHT22;18066;52.106;5.534;2023-12-20T08:11:21;8.10;99.90
18297;DHT22;18066;52.106;5.534;2023-12-20T08:13:47;8.10;99.90
18297;DHT22;18066;52.106;5.534;2023-12-20T08:16:14;8.20;99.90
18297;DHT22;18066;52.106;5.534;2023-12-20T08:18:43;8.10;99.90
18297;DHT22;18066;52.106;5.534;2023-12-20T08:21:09;8.20;99.90
18297;DHT22;18066;52.106;5.534;2023-12-20T08:23:38;8.20;99.90
18297;DHT22;18066;52.106;5.534;2023-12-20T08:26:05;8.20;99.90
18297;DHT22;18066;52.106;5.534;2023-12-20T08:28:32;8.20;99.90
18297;DHT22;18066;52.106;5.534;2023-12-20T08:30:59;8.20;99.90
18297;DHT22;18066;52.106;5.534;2023-12-20T08:33:26;8.20;99.90
18297;DHT22;18066;52.106;5.534;2023-12-20T08:35:53;8.20;99.90
18297;DHT22;18066;52.106;5.534;2023-12-20T08:38:20;8.20;99.90
18297;DHT22;18066;52.106;5.534;2023-12-20T08:40:48;8.20;99.90
18297;DHT22;18066;52.106;5.534;2023-12-20T08:43:15;8.20;99.90
18297;DHT22;18066;52.106;5.534;2023-12-20T08:45:42;8.20;99.90
18297;DHT22;18066;52.106;5.534;2023-12-20T08:48:09;8.20;99.90
18297;DHT22;18066;52.106;5.534;2023-12-20T08:50:35;8.20;99.90
18297;DHT22;18066;52.106;5.534;2023-12-20T08:53:03;8.20;99.90
18297;DHT22;18066;52.106;5.534;2023-12-20T08:55:29;8.20;99.90
18297;DHT22;18066;52.106;5.534;2023-12-20T08:57:58;8.30;99.90
18297;DHT22;18066;52.106;5.534;2023-12-20T09:00:25;8.30;99.90
18297;DHT22;18066;52.106;5.534;2023-12-20T09:02:53;8.20;99.90
18297;DHT22;18066;52.106;5.534;2023-12-20T09:05:20;8.20;99.90
18297;DHT22;18066;52.106;5.534;2023-12-20T09:07:47;8.30;99.90
18297;DHT22;18066;52.106;5.534;2023-12-20T09:10:14;8.20;99.90
18297;DHT22;18066;52.106;5.534;2023-12-20T09:12:41;8.10;99.90
18297;DHT22;18066;52.106;5.534;2023-12-20T09:15:10;8.10;99.90
18297;DHT22;18066;52.106;5.534;2023-12-20T09:17:36;8.00;99.90
18297;DHT22;18066;52.106;5.534;2023-12-20T09:20:04;8.00;99.90
18297;DHT22;18066;52.106;5.534;2023-12-20T09:22:32;8.00;99.90
18297;DHT22;18066;52.106;5.534;2023-12-20T09:24:59;7.90;99.90
18297;DHT22;18066;52.106;5.534;2023-12-20T09:27:27;8.10;99.90
18297;DHT22;18066;52.106;5.534;2023-12-20T09:29:54;8.10;99.90
18297;DHT22;18066;52.106;5.534;2023-12-20T09:32:22;8.10;99.90
18297;DHT22;18066;52.106;5.534;2023-12-20T09:34:49;8.10;99.90
18297;DHT22;18066;52.106;5.534;2023-12-20T09:37:16;8.10;99.90
18297;DHT22;18066;52.106;5.534;2023-12-20T09:39:42;8.10;99.90
18297;DHT22;18066;52.106;5.534;2023-12-20T09:42:11;8.10;99.90
18297;DHT22;18066;52.106;5.534;2023-12-20T09:44:43;8.10;99.90
18297;DHT22;18066;52.106;5.534;2023-12-20T09:47:11;8.10;99.90
18297;DHT22;18066;52.106;5.534;2023-12-20T09:49:40;8.10;99.90
18297;DHT22;18066;52.106;5.534;2023-12-20T09:52:07;8.20;99.90
18297;DHT22;18066;52.106;5.534;2023-12-20T09:54:36;8.30;99.90
18297;DHT22;18066;52.106;5.534;2023-12-20T09:57:03;8.30;99.90
18297;DHT22;18066;52.106;5.534;2023-12-20T09:59:30;8.40;99.90
18297;DHT22;18066;52.106;5.534;2023-12-20T10:01:58;8.40;99.90
18297;DHT22;18066;52.106;5.534;2023-12-20T10:04:30;8.50;99.90
18297;DHT22;18066;52.106;5.534;2023-12-20T10:07:02;8.60;99.90
18297;DHT22;18066;52.106;5.534;2023-12-20T10:09:31;8.60;99.90
18297;DHT22;18066;52.106;5.534;2023-12-20T10:11:58;8.90;99.90
18297;DHT22;18066;52.106;5.534;2023-12-20T10:14:25;8.80;99.90
18297;DHT22;18066;52.106;5.534;2023-12-20T10:16:52;8.80;99.90
18297;DHT22;18066;52.106;5.534;2023-12-20T10:19:21;8.90;99.90
18297;DHT22;18066;52.106;5.534;2023-12-20T10:21:47;8.90;99.90
18297;DHT22;18066;52.106;5.534;2023-12-20T10:24:18;8.90;99.90
18297;DHT22;18066;52.106;5.534;2023-12-20T10:26:45;8.90;99.90
18297;DHT22;18066;52.106;5.534;2023-12-20T10:29:12;9.00;99.90
18297;DHT22;18066;52.106;5.534;2023-12-20T10:31:39;9.00;99.90
18297;DHT22;18066;52.106;5.534;2023-12-20T10:34:06;9.00;99.90
18297;DHT22;18066;52.106;5.534;2023-12-20T10:36:33;9.00;99.90
18297;DHT22;18066;52.106;5.534;2023-12-20T10:39:02;9.10;99.90
18297;DHT22;18066;52.106;5.534;2023-12-20T10:41:32;9.10;99.90
18297;DHT22;18066;52.106;5.534;2023-12-20T10:44:01;9.10;99.90
18297;DHT22;18066;52.106;5.534;2023-12-20T10:46:29;9.10;99.90
18297;DHT22;18066;52.106;5.534;2023-12-20T10:48:57;9.20;99.90
18297;DHT22;18066;52.106;5.534;2023-12-20T10:51:24;9.20;99.90
18297;DHT22;18066;52.106;5.534;2023-12-20T10:53:53;9.20;99.90
18297;DHT22;18066;52.106;5.534;2023-12-20T10:56:20;9.30;99.90
18297;DHT22;18066;52.106;5.534;2023-12-20T10:58:50;9.30;99.90
18297;DHT22;18066;52.106;5.534;2023-12-20T11:01:18;9.30;99.90
18297;DHT22;18066;52.106;5.534;2023-12-20T11:03:49;9.20;99.90
18297;DHT22;18066;52.106;5.534;2023-12-20T11:06:27;9.20;99.90
18297;DHT22;18066;52.106;5.534;2023-12-20T11:09:10;9.30;99.90
18297;DHT22;18066;52.106;5.534;2023-12-20T11:11:56;9.30;99.90
18297;DHT22;18066;52.106;5.534;2023-12-20T11:14:31;9.10;99.90
18297;DHT22;18066;52.106;5.534;2023-12-20T11:17:07;9.50;99.90
18297;DHT22;18066;52.106;5.534;2023-12-20T11:19:37;9.50;99.90
18297;DHT22;18066;52.106;5.534;2023-12-20T11:22:04;9.50;99.90
18297;DHT22;18066;52.106;5.534;2023-12-20T11:24:33;9.60;99.90
18297;DHT22;18066;52.106;5.534;2023-12-20T11:27:03;9.60;99.90
18297;DHT22;18066;52.106;5.534;2023-12-20T11:29:36;9.60;99.90
18297;DHT22;18066;52.106;5.534;2023-12-20T11:32:03;9.60;99.90
18297;DHT22;18066;52.106;5.534;2023-12-20T11:34:51;9.60;99.90
18297;DHT22;18066;52.106;5.534;2023-12-20T11:37:19;9.60;99.90
18297;DHT22;18066;52.106;5.534;2023-12-20T11:39:54;9.60;99.90
18297;DHT22;18066;52.106;5.534;2023-12-20T11:42:21;9.70;99.90
18297;DHT22;18066;52.106;5.534;2023-12-20T11:44:50;9.70;99.90
18297;DHT22;18066;52.106;5.534;2023-12-20T11:47:17;9.80;99.90
18297;DHT22;18066;52.106;5.534;2023-12-20T11:49:44;9.70;99.90
18297;DHT22;18066;52.106;5.534;2023-12-20T11:52:13;9.70;99.90
18297;DHT22;18066;52.106;5.534;2023-12-20T11:54:40;9.70;99.90
18297;DHT22;18066;52.106;5.534;2023-12-20T11:57:07;9.70;99.90
18297;DHT22;18066;52.106;5.534;2023-12-20T11:59:34;9.70;99.90
18297;DHT22;18066;52.106;5.534;2023-12-20T12:02:04;9.70;99.90
18297;DHT22;18066;52.106;5.534;2023-12-20T12:04:31;9.70;99.90
18297;DHT22;18066;52.106;5.534;2023-12-20T12:06:58;9.70;99.90
18297;DHT22;18066;52.106;5.534;2023-12-20T12:09:25;9.80;99.90
18297;DHT22;18066;52.106;5.534;2023-12-20T12:11:51;9.80;99.90
18297;DHT22;18066;52.106;5.534;2023-12-20T12:14:18;9.90;99.90
18297;DHT22;18066;52.106;5.534;2023-12-20T12:16:46;9.80;99.90
18297;DHT22;18066;52.106;5.534;2023-12-20T12:19:22;9.80;99.90
18297;DHT22;18066;52.106;5.534;2023-12-20T12:21:49;9.80;99.90
18297;DHT22;18066;52.106;5.534;2023-12-20T12:24:20;9.80;99.90
18297;DHT22;18066;52.106;5.534;2023-12-20T12:26:50;9.80;99.90
18297;DHT22;18066;52.106;5.534;2023-12-20T12:29:17;9.80;99.90
18297;DHT22;18066;52.106;5.534;2023-12-20T12:31:44;9.80;99.90
18297;DHT22;18066;52.106;5.534;2023-12-20T12:34:11;9.70;99.90
18297;DHT22;18066;52.106;5.534;2023-12-20T12:36:39;9.70;99.90
18297;DHT22;18066;52.106;5.534;2023-12-20T12:39:06;9.80;99.90
18297;DHT22;18066;52.106;5.534;2023-12-20T12:41:34;9.80;99.90
18297;DHT22;18066;52.106;5.534;2023-12-20T12:44:00;9.80;99.90
18297;DHT22;18066;52.106;5.534;2023-12-20T12:46:27;9.80;99.90
18297;DHT22;18066;52.106;5.534;2023-12-20T12:48:54;9.90;99.90
18297;DHT22;18066;52.106;5.534;2023-12-20T12:51:21;9.90;99.90
18297;DHT22;18066;52.106;5.534;2023-12-20T12:53:49;9.80;99.90
18297;DHT22;18066;52.106;5.534;2023-12-20T12:56:16;9.80;99.90
18297;DHT22;18066;52.106;5.534;2023-12-20T12:58:43;9.80;99.90
18297;DHT22;18066;52.106;5.534;2023-12-20T13:01:10;9.80;99.90
18297;DHT22;18066;52.106;5.534;2023-12-20T13:03:37;9.80;99.90
18297;DHT22;18066;52.106;5.534;2023-12-20T13:06:04;9.70;99.90
18297;DHT22;18066;52.106;5.534;2023-12-20T13:08:34;9.70;99.90
18297;DHT22;18066;52.106;5.534;2023-12-20T13:11:02;9.70;99.90
18297;DHT22;18066;52.106;5.534;2023-12-20T13:13:29;9.70;99.90
18297;DHT22;18066;52.106;5.534;2023-12-20T13:15:56;9.80;99.90
18297;DHT22;18066;52.106;5.534;2023-12-20T13:18:23;9.80;99.90
18297;DHT22;18066;52.106;5.534;2023-12-20T13:20:50;9.80;99.90
18297;DHT22;18066;52.106;5.534;2023-12-20T13:23:17;9.80;99.90
18297;DHT22;18066;52.106;5.534;2023-12-20T13:25:44;9.80;99.90
18297;DHT22;18066;52.106;5.534;2023-12-20T13:28:13;9.80;99.90
18297;DHT22;18066;52.106;5.534;2023-12-20T13:30:40;9.70;99.90
18297;DHT22;18066;52.106;5.534;2023-12-20T13:33:08;9.70;99.90
18297;DHT22;18066;52.106;5.534;2023-12-20T13:35:35;9.70;99.90
18297;DHT22;18066;52.106;5.534;2023-12-20T13:38:03;9.70;99.90
18297;DHT22;18066;52.106;5.534;2023-12-20T13:40:30;9.70;99.90
18297;DHT22;18066;52.106;5.534;2023-12-20T13:42:57;9.80;99.90
18297;DHT22;18066;52.106;5.534;2023-12-20T13:45:25;9.70;99.90
18297;DHT22;18066;52.106;5.534;2023-12-20T13:47:52;9.70;99.90
18297;DHT22;18066;52.106;5.534;2023-12-20T13:50:19;9.80;99.90
18297;DHT22;18066;52.106;5.534;2023-12-20T13:52:46;9.80;99.90
18297;DHT22;18066;52.106;5.534;2023-12-20T13:55:13;9.70;99.90
18297;DHT22;18066;52.106;5.534;2023-12-20T13:57:39;9.70;99.90
18297;DHT22;18066;52.106;5.534;2023-12-20T14:00:07;9.60;99.90
18297;DHT22;18066;52.106;5.534;2023-12-20T14:02:41;9.70;99.90
18297;DHT22;18066;52.106;5.534;2023-12-20T14:05:08;9.70;99.90
18297;DHT22;18066;52.106;5.534;2023-12-20T14:07:35;9.60;99.90
18297;DHT22;18066;52.106;5.534;2023-12-20T14:10:03;9.70;99.90
18297;DHT22;18066;52.106;5.534;2023-12-20T14:12:31;9.70;99.90
18297;DHT22;18066;52.106;5.534;2023-12-20T14:15:01;9.60;99.90
18297;DHT22;18066;52.106;5.534;2023-12-20T14:17:28;9.60;99.90
18297;DHT22;18066;52.106;5.534;2023-12-20T14:19:56;9.60;99.90
18297;DHT22;18066;52.106;5.534;2023-12-20T14:22:23;9.60;99.90
18297;DHT22;18066;52.106;5.534;2023-12-20T14:24:50;9.60;99.90
18297;DHT22;18066;52.106;5.534;2023-12-20T14:27:17;9.60;99.90
18297;DHT22;18066;52.106;5.534;2023-12-20T14:29:47;9.60;99.90
18297;DHT22;18066;52.106;5.534;2023-12-20T14:32:14;9.60;99.90
18297;DHT22;18066;52.106;5.534;2023-12-20T14:34:41;9.60;99.90
18297;DHT22;18066;52.106;5.534;2023-12-20T14:37:10;9.50;99.90
18297;DHT22;18066;52.106;5.534;2023-12-20T14:39:36;9.60;99.90
18297;DHT22;18066;52.106;5.534;2023-12-20T14:42:06;9.60;99.90
18297;DHT22;18066;52.106;5.534;2023-12-20T14:44:36;9.60;99.90
18297;DHT22;18066;52.106;5.534;2023-12-20T14:47:03;9.60;99.90
18297;DHT22;18066;52.106;5.534;2023-12-20T14:49:31;9.60;99.90
18297;DHT22;18066;52.106;5.534;2023-12-20T14:51:58;9.60;99.90
18297;DHT22;18066;52.106;5.534;2023-12-20T14:54:26;9.60;99.90
18297;DHT22;18066;52.106;5.534;2023-12-20T14:56:53;9.60;99.90
18297;DHT22;18066;52.106;5.534;2023-12-20T14:59:21;9.60;99.90
18297;DHT22;18066;52.106;5.534;2023-12-20T15:01:48;9.50;99.90
18297;DHT22;18066;52.106;5.534;2023-12-20T15:04:15;9.50;99.90
18297;DHT22;18066;52.106;5.534;2023-12-20T15:06:41;9.50;99.90
18297;DHT22;18066;52.106;5.534;2023-12-20T15:09:10;9.50;99.90
18297;DHT22;18066;52.106;5.534;2023-12-20T15:11:38;9.50;99.90
18297;DHT22;18066;52.106;5.534;2023-12-20T15:14:06;9.50;99.90
18297;DHT22;18066;52.106;5.534;2023-12-20T15:16:33;9.50;99.90
18297;DHT22;18066;52.106;5.534;2023-12-20T15:19:00;9.40;99.90
18297;DHT22;18066;52.106;5.534;2023-12-20T15:21:28;9.50;99.90
18297;DHT22;18066;52.106;5.534;2023-12-20T15:23:57;9.40;99.90
18297;DHT22;18066;52.106;5.534;2023-12-20T15:26:32;9.50;99.90
18297;DHT22;18066;52.106;5.534;2023-12-20T15:29:00;9.40;99.90
18297;DHT22;18066;52.106;5.534;2023-12-20T15:31:27;9.40;99.90
18297;DHT22;18066;52.106;5.534;2023-12-20T15:33:54;9.40;99.90
18297;DHT22;18066;52.106;5.534;2023-12-20T15:36:21;9.30;99.90
18297;DHT22;18066;52.106;5.534;2023-12-20T15:38:48;9.40;99.90
18297;DHT22;18066;52.106;5.534;2023-12-20T15:41:17;9.30;99.90
18297;DHT22;18066;52.106;5.534;2023-12-20T15:43:45;9.30;99.90
18297;DHT22;18066;52.106;5.534;2023-12-20T15:46:13;9.30;99.90